createdAt,value
2022-09-23T00:01:09.870Z,5.10
2022-09-23T00:03:39.125Z,4.53
2022-09-23T00:06:24.241Z,4.03
2022-09-23T00:08:52.632Z,5.00
2022-09-23T00:11:22.554Z,4.95
2022-09-23T00:13:52.437Z,4.63
2022-09-23T00:16:22.302Z,4.55
2022-09-23T00:18:51.751Z,4.47
2022-09-23T00:21:20.462Z,4.20
2022-09-23T00:23:47.535Z,5.70
2022-09-23T00:26:16.693Z,5.30
2022-09-23T00:28:43.638Z,4.90
2022-09-23T00:31:25.830Z,4.60
2022-09-23T00:33:54.767Z,4.38
2022-09-23T00:36:21.277Z,4.55
2022-09-23T00:38:47.869Z,4.60
2022-09-23T00:41:17.650Z,4.43
2022-09-23T00:43:47.978Z,4.03
2022-09-23T00:46:22.033Z,4.28
2022-09-23T00:48:56.016Z,4.10
2022-09-23T00:51:26.414Z,4.97
2022-09-23T00:53:53.125Z,4.78
2022-09-23T00:56:22.253Z,4.10
2022-09-23T00:58:50.288Z,4.30
2022-09-23T01:01:17.130Z,4.00
2022-09-23T01:03:45.614Z,4.35
2022-09-23T01:06:13.535Z,4.15
2022-09-23T01:08:42.266Z,3.70
2022-09-23T01:11:34.052Z,4.40
2022-09-23T01:14:05.479Z,3.42
2022-09-23T01:16:44.423Z,4.43
2022-09-23T01:19:32.564Z,4.00
2022-09-23T01:22:18.388Z,4.00
2022-09-23T01:25:32.339Z,3.65
2022-09-23T01:28:07.696Z,4.20
2022-09-23T01:31:02.291Z,3.72
2022-09-23T01:33:49.274Z,4.13
2022-09-23T01:36:51.586Z,4.30
2022-09-23T01:39:33.203Z,4.18
2022-09-23T01:42:31.515Z,3.45
2022-09-23T01:45:07.130Z,3.88
2022-09-23T01:47:38.690Z,3.78
2022-09-23T01:50:42.519Z,3.90
2022-09-23T01:53:19.121Z,4.03
2022-09-23T01:55:51.525Z,3.70
2022-09-23T01:58:26.951Z,3.70
2022-09-23T02:00:59.750Z,3.50
2022-09-23T02:03:33.747Z,3.63
2022-09-23T02:06:10.633Z,3.85
2022-09-23T02:08:50.122Z,4.28
2022-09-23T02:11:18.039Z,3.50
2022-09-23T02:13:56.005Z,3.42
2022-09-23T02:16:26.357Z,3.20
2022-09-23T02:18:58.087Z,4.00
2022-09-23T02:21:36.259Z,4.03
2022-09-23T02:24:10.202Z,3.97
2022-09-23T02:27:06.021Z,4.05
2022-09-23T02:30:00.611Z,3.30
2022-09-23T02:32:42.035Z,3.10
2022-09-23T02:35:15.830Z,3.15
2022-09-23T02:37:54.049Z,3.35
2022-09-23T02:40:26.385Z,3.50
2022-09-23T02:43:05.704Z,3.97
2022-09-23T02:45:33.545Z,4.30
2022-09-23T02:48:21.948Z,3.78
2022-09-23T02:50:48.942Z,3.90
2022-09-23T02:53:16.113Z,4.07
2022-09-23T02:55:43.351Z,3.93
2022-09-23T02:58:13.325Z,4.05
2022-09-23T03:01:06.088Z,3.53
2022-09-23T03:04:10.242Z,3.60
2022-09-23T03:06:45.744Z,3.70
2022-09-23T03:09:25.491Z,3.70
2022-09-23T03:12:32.334Z,3.55
2022-09-23T03:15:09.368Z,4.15
2022-09-23T03:17:47.391Z,3.40
2022-09-23T03:20:17.645Z,4.50
2022-09-23T03:22:55.720Z,4.00
2022-09-23T03:25:24.814Z,3.83
2022-09-23T03:27:58.161Z,3.50
2022-09-23T03:30:26.403Z,3.90
2022-09-23T03:32:54.969Z,4.05
2022-09-23T03:35:24.768Z,3.80
2022-09-23T03:38:07.108Z,3.53
2022-09-23T03:40:41.803Z,3.92
2022-09-23T03:43:09.559Z,3.90
2022-09-23T03:45:36.461Z,4.25
2022-09-23T03:48:03.887Z,4.00
2022-09-23T03:50:30.525Z,3.67
2022-09-23T03:52:57.024Z,4.05
2022-09-23T03:55:23.567Z,4.05
2022-09-23T03:57:50.028Z,4.00
2022-09-23T04:00:16.565Z,4.33
2022-09-23T04:02:43.139Z,4.03
2022-09-23T04:05:11.308Z,3.90
2022-09-23T04:07:38.229Z,4.32
2022-09-23T04:10:05.955Z,4.32
2022-09-23T04:12:32.500Z,3.90
2022-09-23T04:14:58.938Z,4.32
2022-09-23T04:17:25.492Z,4.28
2022-09-23T04:19:51.972Z,4.30
2022-09-23T04:22:18.530Z,4.10
2022-09-23T04:24:45.080Z,4.03
2022-09-23T04:27:11.564Z,4.43
2022-09-23T04:29:38.108Z,4.70
2022-09-23T04:32:04.721Z,4.38
2022-09-23T04:34:31.324Z,4.57
2022-09-23T04:36:57.862Z,4.63
2022-09-23T04:39:24.337Z,4.90
2022-09-23T04:41:50.884Z,4.65
2022-09-23T04:44:17.390Z,4.28
2022-09-23T04:46:47.408Z,3.67
2022-09-23T04:49:15.170Z,4.30
2022-09-23T04:51:43.375Z,4.85
2022-09-23T04:54:11.931Z,4.20
2022-09-23T04:56:39.641Z,4.53
2022-09-23T04:59:06.973Z,4.05
2022-09-23T05:01:35.063Z,3.77
2022-09-23T05:04:05.262Z,3.85
2022-09-23T05:06:35.861Z,4.05
2022-09-23T05:09:05.378Z,4.20
2022-09-23T05:11:32.456Z,4.10
2022-09-23T05:13:59.498Z,3.83
2022-09-23T05:16:27.077Z,3.75
2022-09-23T05:18:54.384Z,4.50
2022-09-23T05:21:23.376Z,4.28
2022-09-23T05:23:54.159Z,4.63
2022-09-23T05:26:22.472Z,3.77
2022-09-23T05:28:48.960Z,4.88
2022-09-23T05:31:20.362Z,3.97
2022-09-23T05:33:57.172Z,4.15
2022-09-23T05:36:25.176Z,4.80
2022-09-23T05:38:52.572Z,5.80
2022-09-23T05:41:22.881Z,4.72
2022-09-23T05:43:51.624Z,4.65
2022-09-23T05:46:23.510Z,4.70
2022-09-23T05:48:50.644Z,4.40
2022-09-23T05:51:20.003Z,3.60
2022-09-23T05:53:47.858Z,3.67
2022-09-23T05:56:19.611Z,4.15
2022-09-23T05:58:48.940Z,3.88
2022-09-23T06:01:18.322Z,4.05
2022-09-23T06:03:48.879Z,3.50
2022-09-23T06:06:20.134Z,3.40
2022-09-23T06:08:47.762Z,3.33
2022-09-23T06:11:14.597Z,3.45
2022-09-23T06:13:41.725Z,3.80
2022-09-23T06:16:10.818Z,4.70
2022-09-23T06:18:42.312Z,3.35
2022-09-23T06:21:14.129Z,3.25
2022-09-23T06:23:42.160Z,3.22
2022-09-23T06:26:10.915Z,3.10
2022-09-23T06:28:39.614Z,3.00
2022-09-23T06:31:13.154Z,3.70
2022-09-23T06:33:40.506Z,3.15
2022-09-23T06:36:07.775Z,3.83
2022-09-23T06:38:35.295Z,3.33
2022-09-23T06:41:03.329Z,3.43
2022-09-23T06:43:30.584Z,2.95
2022-09-23T06:46:02.029Z,3.70
2022-09-23T06:48:28.874Z,3.08
2022-09-23T06:50:59.447Z,3.55
2022-09-23T06:53:25.977Z,3.13
2022-09-23T06:56:06.760Z,3.00
2022-09-23T06:58:35.489Z,3.28
2022-09-23T07:01:03.777Z,3.00
2022-09-23T07:03:31.698Z,3.40
2022-09-23T07:05:59.089Z,3.00
2022-09-23T07:08:27.483Z,3.05
2022-09-23T07:10:55.080Z,3.88
2022-09-23T07:13:21.669Z,3.10
2022-09-23T07:15:52.998Z,4.50
2022-09-23T07:18:22.221Z,3.03
2022-09-23T07:20:48.838Z,2.90
2022-09-23T07:23:17.487Z,3.78
2022-09-23T07:25:46.562Z,3.28
2022-09-23T07:28:13.682Z,2.88
2022-09-23T07:30:48.953Z,3.03
2022-09-23T07:33:31.554Z,4.07
2022-09-23T07:35:59.143Z,3.70
2022-09-23T07:38:30.123Z,3.63
2022-09-23T07:41:05.197Z,4.30
2022-09-23T07:43:34.619Z,3.80
2022-09-23T07:46:03.867Z,3.78
2022-09-23T07:48:34.342Z,2.97
2022-09-23T07:51:07.573Z,3.67
2022-09-23T07:53:34.467Z,3.85
2022-09-23T07:56:01.236Z,3.83
2022-09-23T07:58:27.723Z,3.22
2022-09-23T08:00:54.180Z,3.72
2022-09-23T08:03:21.271Z,4.03
2022-09-23T08:05:47.833Z,4.68
2022-09-23T08:08:14.374Z,5.03
2022-09-23T08:10:40.982Z,5.75
2022-09-23T08:13:07.545Z,4.32
2022-09-23T08:15:34.262Z,3.70
2022-09-23T08:18:01.758Z,4.10
2022-09-23T08:20:47.760Z,3.80
2022-09-23T08:23:16.631Z,3.83
2022-09-23T08:25:47.045Z,3.67
2022-09-23T08:28:16.574Z,4.05
2022-09-23T08:30:44.864Z,3.30
2022-09-23T08:33:12.219Z,3.43
2022-09-23T08:35:38.963Z,3.40
2022-09-23T08:38:06.171Z,4.22
2022-09-23T08:40:35.518Z,3.42
2022-09-23T08:43:02.288Z,4.32
2022-09-23T08:45:29.069Z,3.70
2022-09-23T08:48:01.758Z,10.20
2022-09-23T08:50:41.221Z,4.25
2022-09-23T08:53:28.679Z,4.20
2022-09-23T08:55:59.541Z,3.80
2022-09-23T08:58:55.129Z,4.57
2022-09-23T09:01:44.330Z,3.58
2022-09-23T09:04:15.989Z,4.47
2022-09-23T09:10:22.309Z,3.92
2022-09-23T09:13:44.791Z,4.27
2022-09-23T09:16:36.533Z,3.85
2022-09-23T09:19:17.047Z,4.07
2022-09-23T09:21:47.937Z,4.35
2022-09-23T09:24:21.684Z,6.68
2022-09-23T09:26:48.231Z,5.10
2022-09-23T09:29:35.269Z,4.45
2022-09-23T09:32:15.292Z,3.65
2022-09-23T09:34:54.683Z,2.90
2022-09-23T09:37:39.159Z,3.05
2022-09-23T09:40:08.841Z,3.00
2022-09-23T09:42:45.176Z,3.35
2022-09-23T09:45:19.725Z,3.50
2022-09-23T09:48:27.325Z,3.20
2022-09-23T09:50:55.884Z,3.58
2022-09-23T09:53:25.778Z,2.70
2022-09-23T09:56:08.767Z,3.20
2022-09-23T09:58:45.997Z,2.97
2022-09-23T10:01:31.071Z,2.85
2022-09-23T10:04:00.572Z,3.20
2022-09-23T10:06:29.820Z,3.03
2022-09-23T10:09:10.760Z,2.97
2022-09-23T10:11:38.752Z,2.90
2022-09-23T10:14:18.891Z,5.05
2022-09-23T10:16:48.622Z,2.67
2022-09-23T10:19:27.436Z,2.67
2022-09-23T10:21:59.633Z,2.42
2022-09-23T10:24:32.056Z,3.30
2022-09-23T10:27:07.518Z,2.90
2022-09-23T10:29:34.019Z,2.80
2022-09-23T10:32:17.030Z,2.60
2022-09-23T10:34:46.682Z,3.00
2022-09-23T10:37:33.831Z,3.20
2022-09-23T10:40:24.986Z,2.53
2022-09-23T10:43:19.732Z,2.75
2022-09-23T10:46:08.270Z,2.37
2022-09-23T10:48:58.031Z,2.15
2022-09-23T10:51:43.605Z,2.05
2022-09-23T10:54:31.313Z,2.10
2022-09-23T10:57:27.258Z,2.95
2022-09-23T11:00:04.520Z,2.50
2022-09-23T11:03:06.767Z,2.65
2022-09-23T11:06:05.156Z,2.40
2022-09-23T11:08:59.164Z,3.05
2022-09-23T11:11:34.518Z,2.65
2022-09-23T11:14:25.633Z,3.37
2022-09-23T11:17:14.521Z,3.33
2022-09-23T11:19:51.417Z,3.22
2022-09-23T11:22:47.013Z,3.22
2022-09-23T11:25:27.956Z,3.13
2022-09-23T11:28:09.693Z,3.20
2022-09-23T11:31:05.468Z,3.45
2022-09-23T11:33:44.748Z,2.78
2022-09-23T11:36:37.906Z,3.45
2022-09-23T11:39:27.407Z,3.05
2022-09-23T11:41:56.670Z,3.27
2022-09-23T11:44:35.562Z,2.75
2022-09-23T11:47:10.837Z,3.15
2022-09-23T11:49:53.680Z,2.72
2022-09-23T11:52:42.263Z,2.47
2022-09-23T11:55:28.868Z,2.30
2022-09-23T11:58:22.649Z,2.35
2022-09-23T12:01:03.135Z,7.82
2022-09-23T12:03:48.103Z,5.30
2022-09-23T12:06:40.224Z,2.90
2022-09-23T12:09:47.335Z,3.10
2022-09-23T12:12:21.914Z,2.58
2022-09-23T12:14:56.614Z,2.00
2022-09-23T12:17:44.651Z,2.40
2022-09-23T12:20:41.375Z,2.03
2022-09-23T12:23:18.960Z,2.27
2022-09-23T12:25:49.884Z,3.17
2022-09-23T12:28:28.185Z,2.80
2022-09-23T12:30:58.520Z,2.47
2022-09-23T12:33:30.271Z,2.20
2022-09-23T12:36:07.158Z,2.60
2022-09-23T12:38:40.314Z,2.95
2022-09-23T12:41:33.628Z,7.53
2022-09-23T12:44:13.486Z,2.50
2022-09-23T12:46:44.390Z,2.60
2022-09-23T12:49:29.179Z,2.30
2022-09-23T12:52:18.657Z,2.10
2022-09-23T12:54:47.459Z,2.67
2022-09-23T12:57:33.885Z,1.80
2022-09-23T13:00:06.594Z,2.88
2022-09-23T13:02:39.314Z,2.87
2022-09-23T13:05:27.623Z,2.90
2022-09-23T13:08:02.424Z,2.33
2022-09-23T13:10:38.211Z,2.05
2022-09-23T13:13:06.470Z,2.28
2022-09-23T13:15:35.480Z,2.20
2022-09-23T13:18:20.338Z,1.95
2022-09-23T13:20:51.298Z,2.20
2022-09-23T13:23:26.760Z,2.20
2022-09-23T13:25:57.114Z,1.70
2022-09-23T13:28:34.313Z,2.00
2022-09-23T13:31:14.063Z,2.30
2022-09-23T13:33:44.865Z,4.10
2022-09-23T13:36:19.467Z,2.40
2022-09-23T13:38:46.884Z,2.70
2022-09-23T13:41:20.004Z,2.30
2022-09-23T13:43:49.251Z,2.65
2022-09-23T13:46:22.482Z,2.17
2022-09-23T13:48:54.712Z,1.85
2022-09-23T13:51:31.562Z,2.20
2022-09-23T13:54:00.206Z,1.97
2022-09-23T13:56:29.901Z,2.55
2022-09-23T13:59:40.914Z,2.67
2022-09-23T14:02:16.112Z,1.95
2022-09-23T14:04:43.163Z,1.98
2022-09-23T14:07:12.124Z,1.87
2022-09-23T14:09:43.509Z,2.08
2022-09-23T14:12:10.954Z,2.10
2022-09-23T14:14:39.907Z,2.30
2022-09-23T14:17:08.696Z,2.20
2022-09-23T14:19:36.761Z,1.90
2022-09-23T14:22:03.668Z,2.28
2022-09-23T14:24:30.203Z,1.92
2022-09-23T14:27:01.450Z,1.95
2022-09-23T14:29:33.854Z,1.70
2022-09-23T14:32:04.240Z,1.80
2022-09-23T14:34:44.571Z,2.33
2022-09-23T14:37:51.167Z,1.90
2022-09-23T14:40:21.251Z,1.65
2022-09-23T14:43:15.685Z,1.70
2022-09-23T14:45:47.288Z,1.33
2022-09-23T14:48:22.490Z,1.52
2022-09-23T14:50:54.519Z,1.50
2022-09-23T14:53:23.812Z,1.75
2022-09-23T14:56:07.469Z,1.65
2022-09-23T14:58:51.043Z,2.03
2022-09-23T15:01:31.038Z,1.80
2022-09-23T15:04:18.636Z,1.75
2022-09-23T15:06:47.521Z,1.33
2022-09-23T15:09:23.662Z,1.67
2022-09-23T15:11:57.426Z,1.70
2022-09-23T15:14:37.926Z,1.45
2022-09-23T15:17:12.832Z,1.95
2022-09-23T15:19:39.504Z,1.88
2022-09-23T15:22:08.311Z,1.52
2022-09-23T15:24:40.670Z,1.60
2022-09-23T15:27:19.325Z,1.65
2022-09-23T15:29:46.876Z,1.77
2022-09-23T15:32:13.338Z,1.60
2022-09-23T15:34:39.836Z,1.50
2022-09-23T15:37:09.246Z,1.73
2022-09-23T15:39:36.546Z,1.80
2022-09-23T15:42:03.262Z,1.88
2022-09-23T15:44:29.923Z,1.60
2022-09-23T15:46:59.902Z,1.70
2022-09-23T15:49:34.072Z,1.67
2022-09-23T15:52:01.564Z,1.52
2022-09-23T15:54:29.210Z,1.67
2022-09-23T15:57:00.339Z,2.17
2022-09-23T15:59:28.544Z,3.00
2022-09-23T16:01:56.564Z,1.80
2022-09-23T16:04:23.668Z,2.17
2022-09-23T16:06:50.263Z,2.20
2022-09-23T16:09:16.823Z,1.95
2022-09-23T16:11:46.036Z,2.00
2022-09-23T16:14:17.279Z,1.40
2022-09-23T16:16:45.257Z,1.55
2022-09-23T16:19:12.365Z,1.80
2022-09-23T16:21:40.794Z,2.25
2022-09-23T16:24:18.314Z,1.70
2022-09-23T16:26:46.721Z,2.00
2022-09-23T16:29:13.515Z,1.67
2022-09-23T16:31:40.430Z,2.38
2022-09-23T16:34:07.239Z,1.73
2022-09-23T16:36:41.834Z,1.98
2022-09-23T16:39:12.014Z,2.17
2022-09-23T16:41:38.917Z,1.88
2022-09-23T16:44:09.193Z,1.48
2022-09-23T16:46:36.357Z,1.83
2022-09-23T16:49:03.110Z,1.85
2022-09-23T16:51:38.026Z,1.60
2022-09-23T16:54:12.492Z,2.00
2022-09-23T16:56:44.091Z,1.80
2022-09-23T16:59:12.400Z,1.88
2022-09-23T17:01:57.950Z,2.00
2022-09-23T17:04:24.602Z,2.03
2022-09-23T17:06:52.751Z,1.67
2022-09-23T17:09:21.275Z,1.80
2022-09-23T17:11:57.750Z,1.60
2022-09-23T17:14:24.478Z,1.83
2022-09-23T17:16:51.024Z,1.50
2022-09-23T17:19:17.592Z,1.77
2022-09-23T17:21:44.653Z,1.90
2022-09-23T17:24:11.404Z,19.00
2022-09-23T17:26:38.197Z,2.30
2022-09-23T17:29:05.521Z,2.40
2022-09-23T17:31:32.201Z,1.77
2022-09-23T17:33:58.804Z,2.00
2022-09-23T17:36:25.314Z,1.85
2022-09-23T17:38:54.680Z,2.67
2022-09-23T17:41:21.788Z,1.90
2022-09-23T17:43:53.655Z,2.13
2022-09-23T17:46:20.197Z,1.98
2022-09-23T17:48:46.958Z,1.83
2022-09-23T17:51:19.679Z,1.80
2022-09-23T17:53:47.354Z,1.80
2022-09-23T17:56:15.316Z,2.40
2022-09-23T17:58:42.902Z,2.15
2022-09-23T18:01:14.636Z,1.80
2022-09-23T18:03:44.183Z,2.20
2022-09-23T18:06:16.490Z,2.20
2022-09-23T18:08:44.562Z,2.00
2022-09-23T18:11:19.585Z,2.33
2022-09-23T18:13:54.450Z,1.88
2022-09-23T18:16:23.545Z,2.33
2022-09-23T18:18:54.657Z,2.10
2022-09-23T18:21:22.498Z,2.60
2022-09-23T18:23:49.543Z,2.85
2022-09-23T18:26:18.788Z,2.17
2022-09-23T18:28:45.374Z,2.60
2022-09-23T18:31:12.272Z,2.37
2022-09-23T18:33:39.147Z,2.70
2022-09-23T18:36:06.854Z,3.00
2022-09-23T18:38:33.390Z,2.90
2022-09-23T18:41:00.509Z,2.53
2022-09-23T18:43:41.358Z,2.63
2022-09-23T18:46:13.645Z,2.50
2022-09-23T18:48:59.517Z,2.45
2022-09-23T18:51:28.965Z,2.90
2022-09-23T18:53:59.403Z,3.28
2022-09-23T18:56:29.594Z,3.20
2022-09-23T18:58:56.779Z,2.83
2022-09-23T19:01:24.184Z,2.97
2022-09-23T19:03:55.882Z,3.33
2022-09-23T19:06:23.043Z,3.90
2022-09-23T19:08:51.482Z,4.30
2022-09-23T19:11:18.513Z,3.97
2022-09-23T19:13:45.323Z,5.35
2022-09-23T19:16:16.436Z,5.20
2022-09-23T19:18:46.331Z,5.20
2022-09-23T19:21:14.508Z,6.83
2022-09-23T19:23:49.167Z,7.30
2022-09-23T19:26:19.015Z,6.78
2022-09-23T19:28:53.685Z,7.97
2022-09-23T19:31:23.535Z,7.10
2022-09-23T19:33:56.814Z,6.80
2022-09-23T19:36:26.007Z,7.10
2022-09-23T19:38:54.295Z,7.70
2022-09-23T19:41:20.776Z,7.65
2022-09-23T19:43:48.613Z,7.40
2022-09-23T19:46:15.609Z,5.97
2022-09-23T19:48:42.387Z,6.50
2022-09-23T19:51:08.885Z,6.75
2022-09-23T19:53:35.364Z,6.45
2022-09-23T19:56:04.823Z,7.28
2022-09-23T19:58:32.993Z,7.40
2022-09-23T20:00:59.618Z,6.30
2022-09-23T20:03:26.944Z,5.78
2022-09-23T20:05:56.973Z,5.80
2022-09-23T20:08:24.167Z,5.93
2022-09-23T20:10:50.738Z,6.03
2022-09-23T20:13:19.881Z,7.10
2022-09-23T20:15:48.190Z,6.97
2022-09-23T20:18:15.314Z,6.10
2022-09-23T20:20:41.898Z,7.00
2022-09-23T20:23:08.395Z,6.40
2022-09-23T20:25:54.803Z,6.05
2022-09-23T20:28:22.254Z,7.47
2022-09-23T20:30:48.922Z,6.85
2022-09-23T20:33:15.653Z,7.35
2022-09-23T20:35:43.754Z,7.30
2022-09-23T20:38:10.619Z,6.78
2022-09-23T20:40:38.426Z,7.30
2022-09-23T20:43:05.193Z,7.60
2022-09-23T20:45:31.885Z,8.05
2022-09-23T20:48:00.099Z,8.00
2022-09-23T20:50:26.657Z,8.18
2022-09-23T20:52:53.188Z,9.23
2022-09-23T20:55:19.664Z,9.40
2022-09-23T20:57:48.352Z,8.73
2022-09-23T21:00:15.561Z,9.67
2022-09-23T21:02:43.271Z,9.45
2022-09-23T21:05:10.415Z,10.30
2022-09-23T21:07:37.427Z,9.02
2022-09-23T21:10:06.788Z,9.07
2022-09-23T21:12:33.282Z,9.57
2022-09-23T21:14:59.707Z,8.77
2022-09-23T21:17:26.806Z,8.65
2022-09-23T21:19:53.246Z,9.25
2022-09-23T21:22:19.714Z,8.93
2022-09-23T21:25:25.968Z,8.27
2022-09-23T21:27:37.073Z,8.43
2022-09-23T21:30:04.630Z,8.75
2022-09-23T21:32:31.190Z,8.88
2022-09-23T21:34:57.658Z,8.00
2022-09-23T21:37:25.357Z,7.70
2022-09-23T21:40:10.406Z,7.47
2022-09-23T21:42:36.986Z,8.65
2022-09-23T21:45:05.154Z,7.65
2022-09-23T21:47:32.327Z,8.25
2022-09-23T21:49:58.787Z,8.93
2022-09-23T21:52:25.230Z,7.18
2022-09-23T21:54:51.976Z,8.35
2022-09-23T21:57:18.447Z,7.85
2022-09-23T21:59:44.943Z,9.07
2022-09-23T22:02:11.417Z,9.60
2022-09-23T22:04:38.024Z,9.55
2022-09-23T22:07:04.719Z,10.02
2022-09-23T22:09:31.286Z,9.73
2022-09-23T22:12:11.586Z,9.98
2022-09-23T22:14:39.306Z,9.23
2022-09-23T22:17:07.755Z,9.13
2022-09-23T22:19:40.320Z,9.52
2022-09-23T22:22:15.036Z,8.88
2022-09-23T22:24:46.270Z,9.65
2022-09-23T22:27:14.505Z,8.97
2022-09-23T22:29:59.778Z,9.65
2022-09-23T22:32:40.413Z,9.10
2022-09-23T22:35:17.723Z,9.15
2022-09-23T22:37:44.923Z,9.63
2022-09-23T22:40:14.328Z,8.87
2022-09-23T22:42:42.240Z,9.02
2022-09-23T22:45:10.427Z,10.65
2022-09-23T22:47:38.773Z,9.05
2022-09-23T22:50:06.961Z,8.65
2022-09-23T22:52:33.575Z,7.10
2022-09-23T22:55:00.237Z,7.70
2022-09-23T22:57:26.771Z,6.90
2022-09-23T22:59:53.245Z,8.05
2022-09-23T23:02:22.326Z,8.27
2022-09-23T23:04:49.358Z,9.00
2022-09-23T23:07:20.189Z,8.02
2022-09-23T23:09:51.078Z,8.90
2022-09-23T23:12:19.850Z,8.27
2022-09-23T23:14:46.964Z,8.95
2022-09-23T23:17:13.639Z,8.20
2022-09-23T23:19:40.163Z,8.98
2022-09-23T23:22:06.647Z,7.72
2022-09-23T23:24:33.173Z,8.00
2022-09-23T23:26:59.646Z,7.97
2022-09-23T23:29:26.094Z,7.70
2022-09-23T23:31:52.672Z,7.63
2022-09-23T23:34:21.260Z,7.75
2022-09-23T23:36:54.568Z,8.15
2022-09-23T23:39:23.463Z,7.93
2022-09-23T23:41:57.711Z,7.00
2022-09-23T23:44:25.731Z,7.57
2022-09-23T23:46:53.328Z,8.52
2022-09-23T23:49:20.188Z,7.65
2022-09-23T23:51:47.773Z,7.82
2022-09-23T23:54:15.322Z,7.17
2022-09-23T23:56:42.070Z,7.15
2022-09-23T23:59:08.585Z,7.13
